Time;durP1;ratioP1;P1;durP2;ratioP2;P2;SDS_P1;SDS_P2;PMS_P1;PMS_P2;Temp;Humidity;BMP_temperature;BMP_pressure;BME280_temperature;BME280_humidity;BME280_pressure;Samples;Min_cycle;Max_cycle;Signal;HPM_P1;HPM_P2
2022/03/05 00:00:48;;;;;;;10.33;5.57;;;;;;;;;;5094313;28;20201;-64
2022/03/05 00:03:16;;;;;;;9.70;5.90;;;;;;;;;;5097784;27;20216;-65
2022/03/05 00:05:43;;;;;;;7.83;5.20;;;;;;;;;;5069523;28;20211;-62
2022/03/05 00:08:11;;;;;;;10.43;5.33;;;;;;;;;;5068891;28;20219;-65
2022/03/05 00:10:38;;;;;;;6.90;5.13;;;;;;;;;;5077154;27;20263;-65
2022/03/05 00:13:06;;;;;;;8.07;5.37;;;;;;;;;;5087496;27;20587;-64
2022/03/05 00:15:33;;;;;;;9.73;5.67;;;;;;;;;;5103563;27;20199;-65
2022/03/05 00:18:01;;;;;;;7.87;5.50;;;;;;;;;;5072497;28;20203;-64
2022/03/05 00:20:29;;;;;;;9.93;5.63;;;;;;;;;;5082872;28;20205;-64
2022/03/05 00:22:56;;;;;;;9.33;5.30;;;;;;;;;;5077903;27;20274;-64
2022/03/05 00:25:24;;;;;;;9.60;5.47;;;;;;;;;;5076388;27;20248;-63
2022/03/05 00:27:53;;;;;;;8.80;5.53;;;;;;;;;;5075398;28;20682;-64
2022/03/05 00:30:21;;;;;;;12.57;6.10;;;;;;;;;;5076231;28;20213;-63
2022/03/05 00:32:50;;;;;;;14.63;7.40;;;;;;;;;;5080450;28;20267;-63
2022/03/05 00:35:19;;;;;;;15.57;8.27;;;;;;;;;;5068005;28;20205;-63
2022/03/05 00:37:48;;;;;;;17.60;8.67;;;;;;;;;;5086696;27;20316;-63
2022/03/05 00:40:16;;;;;;;17.53;8.57;;;;;;;;;;5053954;28;20259;-62
2022/03/05 00:42:43;;;;;;;16.00;8.17;;;;;;;;;;5095054;27;20206;-62
2022/03/05 00:45:11;;;;;;;13.27;7.20;;;;;;;;;;5085503;28;20662;-63
2022/03/05 00:47:38;;;;;;;12.63;7.00;;;;;;;;;;5071857;28;20700;-66
2022/03/05 00:50:07;;;;;;;12.43;7.07;;;;;;;;;;5100761;27;20206;-64
2022/03/05 00:52:36;;;;;;;10.17;6.00;;;;;;;;;;5089934;28;20199;-65
2022/03/05 00:55:03;;;;;;;12.67;6.40;;;;;;;;;;5088101;28;20238;-65
2022/03/05 00:57:31;;;;;;;11.70;6.37;;;;;;;;;;5068777;28;20233;-65
2022/03/05 00:59:58;;;;;;;10.67;5.50;;;;;;;;;;5089025;28;20208;-64
2022/03/05 01:02:25;;;;;;;10.63;6.20;;;;;;;;;;5085791;27;20212;-65
2022/03/05 01:04:53;;;;;;;11.63;6.17;;;;;;;;;;5089882;28;20232;-63
2022/03/05 01:07:20;;;;;;;11.90;6.73;;;;;;;;;;5086364;28;20237;-63
2022/03/05 01:09:49;;;;;;;8.60;5.77;;;;;;;;;;5073515;28;20202;-65
2022/03/05 01:12:16;;;;;;;11.73;6.07;;;;;;;;;;5090813;28;20202;-64
2022/03/05 01:14:44;;;;;;;10.57;6.13;;;;;;;;;;5079261;28;20245;-64
2022/03/05 01:17:11;;;;;;;9.83;6.33;;;;;;;;;;5092940;28;20233;-61
2022/03/05 01:19:39;;;;;;;9.13;5.50;;;;;;;;;;5073246;28;20587;-65
2022/03/05 01:22:06;;;;;;;10.60;5.60;;;;;;;;;;5070244;28;20207;-63
2022/03/05 01:24:34;;;;;;;9.83;5.93;;;;;;;;;;5075669;28;20204;-64
2022/03/05 01:27:02;;;;;;;8.33;5.57;;;;;;;;;;5094435;28;20708;-62
2022/03/05 01:29:29;;;;;;;10.60;6.00;;;;;;;;;;5089512;28;20211;-64
2022/03/05 01:31:57;;;;;;;9.93;5.77;;;;;;;;;;5072477;28;20236;-65
2022/03/05 01:34:24;;;;;;;11.63;7.00;;;;;;;;;;5063900;28;20263;-63
2022/03/05 01:36:52;;;;;;;10.57;6.23;;;;;;;;;;5074803;28;20215;-64
2022/03/05 01:39:19;;;;;;;10.73;6.60;;;;;;;;;;5082979;28;20693;-64
2022/03/05 01:41:48;;;;;;;8.80;6.10;;;;;;;;;;5074017;28;20208;-65
2022/03/05 01:44:16;;;;;;;10.17;5.93;;;;;;;;;;5077147;28;20206;-65
2022/03/05 01:46:43;;;;;;;8.40;5.60;;;;;;;;;;5077514;28;20233;-64
2022/03/05 01:49:11;;;;;;;9.27;5.87;;;;;;;;;;5089459;28;20238;-63
2022/03/05 01:51:40;;;;;;;10.13;6.03;;;;;;;;;;5069077;28;20210;-64
2022/03/05 01:54:08;;;;;;;9.83;6.27;;;;;;;;;;5060110;28;20237;-65
2022/03/05 01:56:37;;;;;;;10.83;6.57;;;;;;;;;;5078039;28;20222;-64
2022/03/05 01:59:05;;;;;;;11.13;6.80;;;;;;;;;;5076930;28;20201;-62
2022/03/05 02:01:32;;;;;;;11.30;6.80;;;;;;;;;;5073483;28;20204;-65
2022/03/05 02:04:00;;;;;;;12.17;6.93;;;;;;;;;;5081381;28;20206;-64
2022/03/05 02:06:27;;;;;;;12.13;6.60;;;;;;;;;;5074843;28;20225;-63
2022/03/05 02:08:57;;;;;;;8.40;6.40;;;;;;;;;;5076777;28;20196;-64
2022/03/05 02:11:25;;;;;;;10.13;6.30;;;;;;;;;;5086643;27;20200;-65
2022/03/05 02:13:53;;;;;;;10.00;6.53;;;;;;;;;;5101591;27;20231;-64
2022/03/05 02:16:21;;;;;;;10.83;6.60;;;;;;;;;;5082021;27;21019;-64
2022/03/05 02:18:50;;;;;;;10.70;6.10;;;;;;;;;;5081735;27;20255;-63
2022/03/05 02:21:18;;;;;;;13.73;6.33;;;;;;;;;;5079853;28;20725;-63
2022/03/05 02:23:46;;;;;;;8.70;5.90;;;;;;;;;;5085609;28;20553;-63
2022/03/05 02:26:13;;;;;;;9.93;6.33;;;;;;;;;;5084429;28;20777;-65
2022/03/05 02:28:41;;;;;;;12.33;7.27;;;;;;;;;;5089549;28;20208;-63
2022/03/05 02:31:08;;;;;;;10.40;6.37;;;;;;;;;;5085369;28;20200;-64
2022/03/05 02:33:36;;;;;;;10.90;6.80;;;;;;;;;;5080967;27;20224;-64
2022/03/05 02:36:03;;;;;;;11.97;6.90;;;;;;;;;;5102978;27;20263;-64
2022/03/05 02:38:31;;;;;;;11.63;6.30;;;;;;;;;;5081610;27;20200;-65
2022/03/05 02:40:58;;;;;;;9.67;6.30;;;;;;;;;;5103117;27;20205;-63
2022/03/05 02:43:26;;;;;;;10.37;6.53;;;;;;;;;;5088456;27;20661;-63
2022/03/05 02:45:54;;;;;;;10.90;6.70;;;;;;;;;;5084915;27;20220;-64
2022/03/05 02:48:22;;;;;;;11.50;6.47;;;;;;;;;;5076093;27;20196;-65
2022/03/05 02:50:50;;;;;;;10.43;6.30;;;;;;;;;;5080141;27;20207;-63
2022/03/05 02:53:18;;;;;;;10.57;6.50;;;;;;;;;;5101942;27;20203;-64
2022/03/05 02:55:46;;;;;;;12.40;7.17;;;;;;;;;;5084635;28;20232;-65
2022/03/05 02:58:14;;;;;;;11.27;6.63;;;;;;;;;;5076895;28;20220;-64
2022/03/05 03:00:41;;;;;;;12.30;6.50;;;;;;;;;;5076039;28;20210;-62
2022/03/05 03:03:09;;;;;;;11.40;6.70;;;;;;;;;;5085181;28;20208;-64
2022/03/05 03:05:37;;;;;;;11.50;6.73;;;;;;;;;;5072586;27;20932;-62
2022/03/05 03:08:04;;;;;;;9.47;6.77;;;;;;;;;;5078393;28;20216;-63
2022/03/05 03:10:32;;;;;;;11.93;7.23;;;;;;;;;;5073389;27;20223;-64
2022/03/05 03:13:00;;;;;;;11.63;7.00;;;;;;;;;;5085658;28;20215;-62
2022/03/05 03:15:27;;;;;;;14.60;6.60;;;;;;;;;;5075105;27;20219;-64
2022/03/05 03:17:55;;;;;;;12.27;7.03;;;;;;;;;;5085004;28;20200;-62
2022/03/05 03:20:24;;;;;;;11.70;7.30;;;;;;;;;;5077323;27;20215;-64
2022/03/05 03:22:52;;;;;;;11.37;7.23;;;;;;;;;;5069658;27;20207;-65
2022/03/05 03:25:20;;;;;;;11.80;7.60;;;;;;;;;;5073275;27;20239;-66
2022/03/05 03:27:47;;;;;;;14.73;8.10;;;;;;;;;;5087017;28;20231;-65
2022/03/05 03:30:15;;;;;;;14.90;7.23;;;;;;;;;;5069687;28;20250;-64
2022/03/05 03:32:43;;;;;;;11.93;7.40;;;;;;;;;;5082983;28;20641;-63
2022/03/05 03:35:12;;;;;;;11.67;7.37;;;;;;;;;;5088107;28;20231;-64
2022/03/05 03:37:40;;;;;;;14.67;7.43;;;;;;;;;;5075059;27;20745;-64
2022/03/05 03:40:09;;;;;;;11.87;7.30;;;;;;;;;;5080441;28;20231;-65
2022/03/05 03:42:36;;;;;;;12.90;8.00;;;;;;;;;;5086705;28;20215;-64
2022/03/05 03:45:05;;;;;;;12.13;7.70;;;;;;;;;;5071045;28;20220;-65
2022/03/05 03:47:32;;;;;;;12.70;8.20;;;;;;;;;;5072143;28;20233;-63
2022/03/05 03:50:00;;;;;;;13.77;8.00;;;;;;;;;;5081479;28;20675;-64
2022/03/05 03:52:27;;;;;;;13.13;8.23;;;;;;;;;;5084548;27;20204;-64
2022/03/05 03:54:55;;;;;;;12.33;7.77;;;;;;;;;;5077578;28;20220;-64
2022/03/05 03:57:22;;;;;;;12.87;8.17;;;;;;;;;;5072511;28;20770;-64
2022/03/05 03:59:51;;;;;;;13.60;8.07;;;;;;;;;;5089384;27;20709;-65
2022/03/05 04:02:20;;;;;;;13.83;8.20;;;;;;;;;;5078592;28;20671;-63
2022/03/05 04:04:48;;;;;;;16.60;8.60;;;;;;;;;;5105669;27;20204;-64
2022/03/05 04:10:04;;;;;;;15.70;9.00;;;;;;;;;;5099369;27;20216;-64
2022/03/05 04:12:31;;;;;;;16.70;9.50;;;;;;;;;;5079011;27;20208;-64
2022/03/05 04:14:58;;;;;;;19.17;9.67;;;;;;;;;;5078476;28;20223;-62
2022/03/05 04:17:26;;;;;;;17.57;10.07;;;;;;;;;;5082117;27;20219;-63
2022/03/05 04:19:54;;;;;;;18.87;10.47;;;;;;;;;;5067238;28;20291;-62
2022/03/05 04:22:21;;;;;;;18.40;10.83;;;;;;;;;;5077577;28;20253;-64
2022/03/05 04:24:48;;;;;;;17.93;11.03;;;;;;;;;;5100450;27;20242;-65
2022/03/05 04:27:16;;;;;;;18.43;10.90;;;;;;;;;;5083826;28;20229;-63
2022/03/05 04:29:43;;;;;;;19.93;11.37;;;;;;;;;;5078772;27;20360;-63
2022/03/05 04:32:10;;;;;;;21.07;11.83;;;;;;;;;;5075299;28;20253;-64
2022/03/05 04:34:38;;;;;;;21.73;11.80;;;;;;;;;;5067362;28;20224;-63
2022/03/05 04:37:06;;;;;;;19.80;11.23;;;;;;;;;;5080989;28;20232;-64
2022/03/05 04:39:33;;;;;;;22.07;11.07;;;;;;;;;;5098452;28;20247;-64
2022/03/05 04:42:00;;;;;;;19.93;11.07;;;;;;;;;;5077276;28;20205;-65
2022/03/05 04:44:28;;;;;;;19.13;10.73;;;;;;;;;;5073184;28;20201;-62
2022/03/05 04:46:55;;;;;;;18.50;10.17;;;;;;;;;;5067946;28;20302;-63
2022/03/05 04:49:23;;;;;;;18.03;10.03;;;;;;;;;;5052795;28;20282;-63
2022/03/05 04:51:51;;;;;;;17.27;9.70;;;;;;;;;;5066533;28;20204;-63
2022/03/05 04:54:18;;;;;;;16.77;9.53;;;;;;;;;;5064418;28;21267;-64
2022/03/05 04:56:45;;;;;;;18.10;9.43;;;;;;;;;;5075462;28;20224;-65
2022/03/05 04:59:13;;;;;;;20.83;10.60;;;;;;;;;;5084372;27;20210;-63
2022/03/05 05:01:40;;;;;;;19.03;9.60;;;;;;;;;;5081496;28;20204;-64
2022/03/05 05:04:08;;;;;;;17.63;9.37;;;;;;;;;;5086515;28;20204;-62
2022/03/05 05:06:35;;;;;;;16.17;10.20;;;;;;;;;;5067305;28;20237;-63
2022/03/05 05:09:03;;;;;;;16.57;10.17;;;;;;;;;;5092430;28;20235;-62
2022/03/05 05:11:30;;;;;;;16.33;10.50;;;;;;;;;;5101092;27;20262;-63
2022/03/05 05:13:57;;;;;;;19.47;10.40;;;;;;;;;;5089285;28;20242;-64
2022/03/05 05:16:25;;;;;;;19.50;10.87;;;;;;;;;;5078165;28;20720;-63
2022/03/05 05:21:39;;;;;;;23.70;11.70;;;;;;;;;;5093159;28;20196;-65
2022/03/05 05:24:07;;;;;;;23.77;12.80;;;;;;;;;;5077362;28;23223;-63
2022/03/05 05:26:34;;;;;;;20.90;12.83;;;;;;;;;;5080058;28;20713;-64
2022/03/05 05:29:01;;;;;;;23.83;13.57;;;;;;;;;;5099603;28;20208;-62
2022/03/05 05:31:29;;;;;;;23.77;12.13;;;;;;;;;;5084630;28;20208;-63
2022/03/05 05:33:57;;;;;;;20.93;11.17;;;;;;;;;;5087680;27;20216;-62
2022/03/05 05:36:24;;;;;;;19.80;11.27;;;;;;;;;;5074925;28;20215;-63
2022/03/05 05:38:51;;;;;;;18.77;10.93;;;;;;;;;;5086619;28;20202;-64
2022/03/05 05:41:19;;;;;;;17.37;10.87;;;;;;;;;;5073233;28;20210;-64
2022/03/05 05:43:47;;;;;;;16.97;10.43;;;;;;;;;;5080688;28;20210;-62
2022/03/05 05:46:14;;;;;;;16.67;10.17;;;;;;;;;;5088893;28;20347;-64
2022/03/05 05:48:53;;;;;;;19.83;10.67;;;;;;;;;;5101144;27;20210;-62
2022/03/05 05:51:20;;;;;;;16.57;9.90;;;;;;;;;;5085329;28;20700;-63
2022/03/05 05:53:54;;;;;;;17.03;9.57;;;;;;;;;;5059960;28;20214;-63
2022/03/05 05:56:21;;;;;;;17.37;10.53;;;;;;;;;;5096725;27;20234;-64
2022/03/05 05:58:49;;;;;;;19.20;11.47;;;;;;;;;;5084256;28;20197;-62
2022/03/05 06:01:17;;;;;;;22.90;12.20;;;;;;;;;;5101808;27;20224;-63
2022/03/05 06:03:45;;;;;;;23.23;13.63;;;;;;;;;;5077968;27;20212;-62
2022/03/05 06:06:13;;;;;;;25.57;14.23;;;;;;;;;;5066929;28;20240;-64
2022/03/05 06:08:40;;;;;;;20.40;11.73;;;;;;;;;;5085954;28;20220;-64
2022/03/05 06:11:08;;;;;;;22.70;12.27;;;;;;;;;;5072982;28;20208;-62
2022/03/05 06:13:35;;;;;;;18.60;11.13;;;;;;;;;;5061260;28;20245;-64
2022/03/05 06:16:03;;;;;;;21.97;12.67;;;;;;;;;;5071354;28;20262;-63
2022/03/05 06:18:30;;;;;;;20.40;12.13;;;;;;;;;;5092282;28;20247;-64
2022/03/05 06:20:58;;;;;;;22.87;11.80;;;;;;;;;;5068496;27;20201;-64
2022/03/05 06:23:26;;;;;;;24.83;12.90;;;;;;;;;;5088300;27;20217;-63
2022/03/05 06:25:53;;;;;;;18.40;11.10;;;;;;;;;;5085106;27;20232;-63
2022/03/05 06:28:20;;;;;;;29.17;16.53;;;;;;;;;;5072210;28;20209;-65
2022/03/05 06:30:48;;;;;;;36.57;18.07;;;;;;;;;;5095608;28;20207;-65
2022/03/05 06:33:15;;;;;;;26.57;15.77;;;;;;;;;;5093300;28;20665;-62
2022/03/05 06:35:43;;;;;;;24.57;14.17;;;;;;;;;;5114055;27;20279;-63
2022/03/05 06:38:11;;;;;;;25.77;13.40;;;;;;;;;;5092355;27;20222;-63
2022/03/05 06:40:38;;;;;;;22.90;12.50;;;;;;;;;;5091556;28;20307;-63
2022/03/05 06:43:06;;;;;;;19.93;12.20;;;;;;;;;;5082872;27;20203;-62
2022/03/05 06:45:33;;;;;;;22.70;11.70;;;;;;;;;;5074886;27;20216;-61
2022/03/05 06:48:01;;;;;;;27.20;13.30;;;;;;;;;;5077534;27;20209;-64
2022/03/05 06:50:28;;;;;;;27.27;13.73;;;;;;;;;;5077937;28;20225;-65
2022/03/05 06:52:56;;;;;;;23.50;13.50;;;;;;;;;;5083901;28;20731;-62
2022/03/05 06:55:24;;;;;;;24.93;13.53;;;;;;;;;;5088062;27;20308;-62
2022/03/05 06:57:52;;;;;;;22.63;12.90;;;;;;;;;;5085317;28;20216;-62
2022/03/05 07:00:23;;;;;;;24.37;13.53;;;;;;;;;;5078998;28;20198;-65
2022/03/05 07:02:50;;;;;;;26.20;13.83;;;;;;;;;;5096918;28;20231;-63
2022/03/05 07:05:18;;;;;;;28.37;14.77;;;;;;;;;;5080752;28;20212;-65
2022/03/05 07:07:45;;;;;;;28.97;15.07;;;;;;;;;;5086915;28;20243;-64
2022/03/05 07:10:13;;;;;;;24.70;13.97;;;;;;;;;;5086827;27;20608;-64
2022/03/05 07:12:41;;;;;;;28.23;15.73;;;;;;;;;;5106212;28;20216;-63
2022/03/05 07:15:09;;;;;;;24.20;14.33;;;;;;;;;;5105445;28;20232;-64
2022/03/05 07:17:36;;;;;;;29.40;15.20;;;;;;;;;;5082575;28;20232;-64
2022/03/05 07:20:05;;;;;;;28.17;15.87;;;;;;;;;;5109190;27;20204;-64
2022/03/05 07:22:32;;;;;;;26.80;14.37;;;;;;;;;;5084427;27;20220;-62
2022/03/05 07:25:00;;;;;;;27.20;15.03;;;;;;;;;;5096806;27;20254;-64
2022/03/05 07:27:28;;;;;;;24.47;14.33;;;;;;;;;;5073721;28;21592;-64
2022/03/05 07:29:56;;;;;;;30.17;15.67;;;;;;;;;;5088715;28;20201;-62
2022/03/05 07:32:23;;;;;;;25.97;14.23;;;;;;;;;;5080452;28;20254;-65
2022/03/05 07:34:52;;;;;;;25.20;15.53;;;;;;;;;;5079020;27;20317;-63
2022/03/05 07:37:19;;;;;;;27.40;15.73;;;;;;;;;;5088976;27;20211;-62
2022/03/05 07:39:46;;;;;;;24.27;15.23;;;;;;;;;;5084928;28;20200;-64
2022/03/05 07:42:14;;;;;;;28.23;15.70;;;;;;;;;;5094476;28;20215;-65
2022/03/05 07:44:41;;;;;;;30.93;17.07;;;;;;;;;;5079483;27;20269;-64
2022/03/05 07:47:08;;;;;;;28.30;15.63;;;;;;;;;;5083619;28;20228;-63
2022/03/05 07:49:36;;;;;;;30.03;16.10;;;;;;;;;;5084139;28;20208;-64
2022/03/05 07:52:04;;;;;;;26.37;15.63;;;;;;;;;;5081867;28;20196;-62
2022/03/05 07:54:31;;;;;;;27.00;15.50;;;;;;;;;;5086469;28;20257;-64
2022/03/05 07:56:58;;;;;;;28.87;15.93;;;;;;;;;;5083123;27;20236;-64
2022/03/05 07:59:26;;;;;;;40.40;19.53;;;;;;;;;;5078702;28;20198;-64
2022/03/05 08:01:54;;;;;;;25.17;14.87;;;;;;;;;;5073521;27;20204;-64
2022/03/05 08:04:22;;;;;;;24.87;15.40;;;;;;;;;;5074818;28;20216;-65
2022/03/05 08:06:49;;;;;;;23.33;14.37;;;;;;;;;;5086557;27;20290;-62
2022/03/05 08:09:16;;;;;;;25.60;14.70;;;;;;;;;;5063113;28;20697;-64
2022/03/05 08:11:44;;;;;;;24.97;14.10;;;;;;;;;;5095673;27;20212;-66
2022/03/05 08:14:11;;;;;;;27.93;14.60;;;;;;;;;;5081362;27;20213;-64
2022/03/05 08:16:38;;;;;;;23.83;12.80;;;;;;;;;;5092320;28;20231;-63
2022/03/05 08:19:07;;;;;;;22.03;12.87;;;;;;;;;;5072509;28;20265;-63
2022/03/05 08:21:36;;;;;;;22.53;12.73;;;;;;;;;;5076815;28;20208;-63
2022/03/05 08:24:04;;;;;;;23.40;13.23;;;;;;;;;;5053912;28;20215;-62
2022/03/05 08:26:31;;;;;;;22.10;13.60;;;;;;;;;;5072480;28;20225;-63
2022/03/05 08:28:58;;;;;;;22.97;13.67;;;;;;;;;;5064023;28;20674;-65
2022/03/05 08:31:26;;;;;;;25.10;13.50;;;;;;;;;;5078001;28;21534;-63
2022/03/05 08:33:53;;;;;;;23.87;13.90;;;;;;;;;;5075841;28;20221;-62
2022/03/05 08:36:21;;;;;;;22.97;12.90;;;;;;;;;;5078176;28;20224;-63
2022/03/05 08:38:48;;;;;;;22.93;13.13;;;;;;;;;;5076710;28;20218;-63
2022/03/05 08:41:15;;;;;;;22.73;13.60;;;;;;;;;;5076080;28;20202;-62
2022/03/05 08:43:43;;;;;;;22.90;13.20;;;;;;;;;;5097945;27;20205;-63
2022/03/05 08:46:10;;;;;;;24.23;12.93;;;;;;;;;;5075058;28;20239;-62
2022/03/05 08:48:38;;;;;;;21.20;12.00;;;;;;;;;;5088817;28;20209;-62
2022/03/05 08:51:06;;;;;;;21.30;11.70;;;;;;;;;;5069719;28;20240;-62
2022/03/05 08:53:34;;;;;;;23.03;13.17;;;;;;;;;;5086501;28;20204;-61
2022/03/05 08:56:01;;;;;;;23.87;12.00;;;;;;;;;;5076599;28;20815;-62
2022/03/05 08:58:28;;;;;;;27.23;13.40;;;;;;;;;;5078178;28;20196;-61
2022/03/05 09:00:59;;;;;;;19.03;11.37;;;;;;;;;;5083900;28;20197;-63
2022/03/05 09:03:28;;;;;;;21.57;12.33;;;;;;;;;;5095453;27;20206;-64
2022/03/05 09:05:56;;;;;;;20.17;11.67;;;;;;;;;;5071910;27;20289;-64
2022/03/05 09:08:23;;;;;;;19.07;10.50;;;;;;;;;;5086234;28;20208;-64
2022/03/05 09:10:50;;;;;;;16.17;9.53;;;;;;;;;;5086837;28;20204;-63
2022/03/05 09:13:18;;;;;;;14.43;9.50;;;;;;;;;;5089256;28;20216;-63
2022/03/05 09:15:45;;;;;;;18.00;9.60;;;;;;;;;;5082014;28;20228;-63
2022/03/05 09:18:13;;;;;;;13.47;8.53;;;;;;;;;;5090364;28;20223;-63
2022/03/05 09:20:43;;;;;;;15.37;8.60;;;;;;;;;;5080026;28;20199;-63
2022/03/05 09:23:11;;;;;;;16.53;8.03;;;;;;;;;;5083030;28;20204;-63
2022/03/05 09:25:38;;;;;;;14.70;9.40;;;;;;;;;;5084746;28;20258;-62
2022/03/05 09:28:05;;;;;;;11.57;7.57;;;;;;;;;;5092751;28;20223;-62
2022/03/05 09:30:33;;;;;;;12.30;7.93;;;;;;;;;;5091579;28;20736;-63
2022/03/05 09:33:00;;;;;;;12.17;7.47;;;;;;;;;;5084008;28;20208;-63
2022/03/05 09:35:28;;;;;;;13.20;7.73;;;;;;;;;;5108325;28;20712;-62
2022/03/05 09:37:55;;;;;;;8.83;6.63;;;;;;;;;;5094688;28;20557;-64
2022/03/05 09:40:23;;;;;;;8.43;6.03;;;;;;;;;;5090753;28;20215;-62
2022/03/05 09:42:51;;;;;;;9.70;7.07;;;;;;;;;;5088670;28;20196;-64
2022/03/05 09:45:18;;;;;;;13.27;7.13;;;;;;;;;;5085998;28;20245;-62
2022/03/05 09:47:46;;;;;;;11.83;7.33;;;;;;;;;;5097130;28;20719;-62
2022/03/05 09:50:13;;;;;;;10.50;6.20;;;;;;;;;;5079164;28;20201;-63
2022/03/05 09:52:41;;;;;;;9.33;6.50;;;;;;;;;;5088243;28;20227;-63
2022/03/05 09:55:08;;;;;;;9.67;6.47;;;;;;;;;;5097647;28;20203;-64
2022/03/05 09:57:36;;;;;;;10.70;5.83;;;;;;;;;;5105456;28;20216;-64
2022/03/05 10:00:05;;;;;;;8.97;5.47;;;;;;;;;;5109768;28;20269;-64
2022/03/05 10:02:32;;;;;;;9.60;6.13;;;;;;;;;;5082478;28;20205;-63
2022/03/05 10:05:18;;;;;;;7.83;5.20;;;;;;;;;;5101899;28;20235;-65
2022/03/05 10:08:08;;;;;;;9.60;5.20;;;;;;;;;;5110379;28;20231;-63
2022/03/05 10:10:42;;;;;;;8.67;5.50;;;;;;;;;;5082115;28;20196;-64
2022/03/05 10:13:18;;;;;;;7.77;5.60;;;;;;;;;;5080537;28;20205;-64
2022/03/05 10:15:46;;;;;;;8.40;5.13;;;;;;;;;;5085970;28;20250;-64
2022/03/05 10:18:14;;;;;;;8.73;5.47;;;;;;;;;;5092239;28;20215;-62
2022/03/05 10:20:50;;;;;;;8.53;5.77;;;;;;;;;;5079207;28;20200;-64
2022/03/05 10:23:19;;;;;;;7.67;5.23;;;;;;;;;;5086455;28;20196;-62
2022/03/05 10:25:48;;;;;;;8.07;5.07;;;;;;;;;;5077549;28;20297;-64
2022/03/05 10:28:21;;;;;;;7.30;5.20;;;;;;;;;;5108971;28;20201;-61
2022/03/05 10:30:53;;;;;;;9.33;5.33;;;;;;;;;;5081442;28;20216;-61
2022/03/05 10:33:33;;;;;;;7.53;4.93;;;;;;;;;;5088868;28;20251;-63
2022/03/05 10:36:02;;;;;;;6.47;4.93;;;;;;;;;;5089301;27;20699;-64
2022/03/05 10:38:49;;;;;;;6.43;4.53;;;;;;;;;;5105750;27;20208;-62
2022/03/05 10:41:18;;;;;;;8.50;5.43;;;;;;;;;;5096820;28;20206;-63
2022/03/05 10:44:06;;;;;;;7.40;5.23;;;;;;;;;;5099722;27;20251;-62
2022/03/05 10:46:47;;;;;;;7.27;5.07;;;;;;;;;;5105465;27;20229;-63
2022/03/05 10:49:24;;;;;;;6.73;4.67;;;;;;;;;;5105089;27;20268;-62
2022/03/05 10:52:00;;;;;;;5.80;4.93;;;;;;;;;;5091061;28;20208;-63
2022/03/05 10:54:29;;;;;;;8.67;5.37;;;;;;;;;;5089169;28;20200;-62
2022/03/05 10:56:57;;;;;;;7.83;5.07;;;;;;;;;;5083915;27;20240;-63
2022/03/05 10:59:24;;;;;;;7.73;5.30;;;;;;;;;;5082288;28;20284;-61
2022/03/05 11:01:53;;;;;;;10.73;5.90;;;;;;;;;;5081236;28;20201;-64
2022/03/05 11:04:21;;;;;;;6.77;4.90;;;;;;;;;;5069028;28;20206;-63
2022/03/05 11:06:49;;;;;;;8.27;5.70;;;;;;;;;;5087328;27;20235;-62
2022/03/05 11:09:16;;;;;;;10.63;6.57;;;;;;;;;;5080374;28;20258;-64
2022/03/05 11:11:44;;;;;;;11.87;5.83;;;;;;;;;;5087112;27;20221;-62
2022/03/05 11:14:12;;;;;;;6.83;5.57;;;;;;;;;;5088349;28;20211;-62
2022/03/05 11:16:39;;;;;;;8.33;5.40;;;;;;;;;;5091433;28;20228;-64
2022/03/05 11:19:07;;;;;;;8.03;5.90;;;;;;;;;;5087482;28;20204;-63
2022/03/05 11:21:34;;;;;;;8.53;6.23;;;;;;;;;;5073884;28;20659;-63
2022/03/05 11:24:02;;;;;;;8.57;6.43;;;;;;;;;;5077499;27;20254;-65
2022/03/05 11:26:31;;;;;;;9.73;6.20;;;;;;;;;;5086603;27;20813;-64
2022/03/05 11:29:19;;;;;;;10.30;5.90;;;;;;;;;;5093170;28;20208;-63
2022/03/05 11:31:47;;;;;;;11.70;7.70;;;;;;;;;;5091268;27;20241;-64
2022/03/05 11:34:17;;;;;;;10.17;6.97;;;;;;;;;;5084395;28;20204;-62
2022/03/05 11:36:46;;;;;;;13.50;7.90;;;;;;;;;;5085211;28;20239;-64
2022/03/05 11:39:43;;;;;;;10.53;7.40;;;;;;;;;;5096779;27;20652;-64
2022/03/05 11:42:10;;;;;;;9.07;7.23;;;;;;;;;;5063001;28;20200;-63
2022/03/05 11:44:39;;;;;;;10.30;7.60;;;;;;;;;;5079300;28;20687;-62
2022/03/05 11:47:21;;;;;;;11.27;7.70;;;;;;;;;;5088375;27;20296;-62
2022/03/05 11:49:58;;;;;;;12.17;8.20;;;;;;;;;;5083762;28;20461;-62
2022/03/05 11:52:38;;;;;;;13.70;8.60;;;;;;;;;;5083879;28;20204;-63
2022/03/05 11:55:11;;;;;;;17.23;10.87;;;;;;;;;;5084493;28;20205;-64
2022/03/05 11:57:39;;;;;;;12.67;8.43;;;;;;;;;;5094505;27;20282;-63
2022/03/05 12:00:07;;;;;;;12.33;8.90;;;;;;;;;;5086436;28;20196;-63
2022/03/05 12:02:39;;;;;;;15.07;9.23;;;;;;;;;;5106524;27;20211;-65
2022/03/05 12:05:06;;;;;;;13.93;8.73;;;;;;;;;;5103006;27;21302;-62
2022/03/05 12:07:38;;;;;;;14.77;9.37;;;;;;;;;;5087663;28;20238;-64
2022/03/05 12:10:13;;;;;;;12.10;8.17;;;;;;;;;;5086432;27;20215;-62
2022/03/05 12:12:52;;;;;;;13.43;7.93;;;;;;;;;;5081936;27;20239;-62
2022/03/05 12:15:28;;;;;;;14.43;8.20;;;;;;;;;;5085374;28;20208;-63
2022/03/05 12:17:56;;;;;;;11.97;8.33;;;;;;;;;;5099190;28;20712;-63
2022/03/05 12:20:33;;;;;;;12.57;8.70;;;;;;;;;;5071219;28;20206;-63
2022/03/05 12:23:08;;;;;;;14.70;8.93;;;;;;;;;;5084820;28;20642;-63
2022/03/05 12:25:37;;;;;;;12.23;8.93;;;;;;;;;;5081547;28;20196;-62
2022/03/05 12:28:06;;;;;;;12.43;9.20;;;;;;;;;;5087892;27;20208;-62
2022/03/05 12:30:37;;;;;;;12.63;8.80;;;;;;;;;;5078428;28;20212;-64
2022/03/05 12:33:05;;;;;;;12.83;9.10;;;;;;;;;;5077941;28;20197;-63
2022/03/05 12:35:34;;;;;;;13.83;9.03;;;;;;;;;;5094606;27;20576;-64
2022/03/05 12:38:01;;;;;;;10.13;8.40;;;;;;;;;;5087822;28;20612;-63
2022/03/05 12:40:33;;;;;;;12.80;9.40;;;;;;;;;;5075366;27;20308;-62
2022/03/05 12:43:01;;;;;;;12.00;8.43;;;;;;;;;;5085652;28;20204;-62
2022/03/05 12:45:31;;;;;;;13.50;9.50;;;;;;;;;;5092131;28;20204;-62
2022/03/05 12:47:59;;;;;;;13.60;8.97;;;;;;;;;;5095330;28;20624;-61
2022/03/05 12:50:36;;;;;;;12.70;9.07;;;;;;;;;;5085617;28;20214;-63
2022/03/05 12:53:13;;;;;;;11.40;9.00;;;;;;;;;;5093478;28;20208;-63
2022/03/05 12:55:42;;;;;;;14.00;8.80;;;;;;;;;;5086338;27;20235;-63
2022/03/05 12:58:11;;;;;;;13.17;8.33;;;;;;;;;;5092070;28;20236;-64
2022/03/05 13:00:39;;;;;;;12.73;9.17;;;;;;;;;;5091112;27;20214;-61
2022/03/05 13:03:08;;;;;;;12.33;9.23;;;;;;;;;;5089614;28;20212;-64
2022/03/05 13:05:35;;;;;;;17.63;10.77;;;;;;;;;;5089763;28;20276;-64
2022/03/05 13:08:03;;;;;;;14.00;9.07;;;;;;;;;;5093353;28;20218;-64
2022/03/05 13:10:30;;;;;;;11.43;8.40;;;;;;;;;;5104724;27;20549;-64
2022/03/05 13:12:57;;;;;;;12.83;8.57;;;;;;;;;;5089371;27;20214;-63
2022/03/05 13:15:26;;;;;;;10.50;8.10;;;;;;;;;;5086878;28;20204;-63
2022/03/05 13:17:56;;;;;;;13.00;8.80;;;;;;;;;;5091695;28;20269;-63
2022/03/05 13:20:23;;;;;;;12.60;8.77;;;;;;;;;;5073029;28;20208;-62
2022/03/05 13:22:51;;;;;;;12.33;9.17;;;;;;;;;;5088093;28;20215;-64
2022/03/05 13:25:18;;;;;;;11.27;8.77;;;;;;;;;;5088918;28;20666;-63
2022/03/05 13:27:47;;;;;;;14.33;9.23;;;;;;;;;;5085938;28;20224;-63
2022/03/05 13:30:19;;;;;;;12.97;8.97;;;;;;;;;;5087150;28;20220;-61
2022/03/05 13:32:47;;;;;;;15.00;9.00;;;;;;;;;;5088475;28;20212;-64
2022/03/05 13:35:15;;;;;;;13.50;8.90;;;;;;;;;;5087477;28;20200;-62
2022/03/05 13:37:47;;;;;;;13.43;8.53;;;;;;;;;;5091800;28;20306;-63
2022/03/05 13:40:16;;;;;;;10.00;7.87;;;;;;;;;;5110875;28;20188;-63
2022/03/05 13:42:45;;;;;;;10.43;8.47;;;;;;;;;;5091699;28;20208;-61
2022/03/05 13:45:14;;;;;;;11.20;7.93;;;;;;;;;;5086413;28;20208;-64
2022/03/05 13:47:47;;;;;;;11.57;8.77;;;;;;;;;;5093936;28;20584;-63
2022/03/05 13:50:16;;;;;;;13.17;9.47;;;;;;;;;;5090134;28;20196;-64
2022/03/05 13:52:59;;;;;;;18.17;10.07;;;;;;;;;;5083568;28;20204;-61
2022/03/05 13:55:28;;;;;;;14.50;10.80;;;;;;;;;;5077250;28;20204;-64
2022/03/05 13:57:55;;;;;;;12.80;9.60;;;;;;;;;;5083370;28;20238;-65
2022/03/05 14:00:24;;;;;;;12.87;9.83;;;;;;;;;;5086139;28;20212;-64
2022/03/05 14:02:52;;;;;;;12.97;9.00;;;;;;;;;;5081615;28;20674;-62
2022/03/05 14:05:22;;;;;;;16.70;11.37;;;;;;;;;;5082469;28;20740;-64
2022/03/05 14:07:51;;;;;;;55.07;27.93;;;;;;;;;;5083592;28;20326;-65
2022/03/05 14:10:20;;;;;;;13.03;9.20;;;;;;;;;;5091932;28;20204;-61
2022/03/05 14:12:51;;;;;;;11.70;7.97;;;;;;;;;;5089856;28;20208;-63
2022/03/05 14:15:21;;;;;;;13.07;8.80;;;;;;;;;;5088344;28;20201;-64
2022/03/05 14:17:58;;;;;;;12.27;7.80;;;;;;;;;;5095968;28;20250;-62
2022/03/05 14:20:28;;;;;;;11.57;8.43;;;;;;;;;;5100011;27;20197;-64
2022/03/05 14:22:59;;;;;;;10.50;7.77;;;;;;;;;;5090385;27;20245;-64
2022/03/05 14:25:32;;;;;;;13.20;8.20;;;;;;;;;;5086597;27;20197;-63
2022/03/05 14:28:01;;;;;;;11.47;8.67;;;;;;;;;;5089978;28;20204;-64
2022/03/05 14:30:29;;;;;;;13.63;8.47;;;;;;;;;;5086840;27;20223;-63
2022/03/05 14:32:58;;;;;;;11.50;8.20;;;;;;;;;;5091824;28;20658;-63
2022/03/05 14:35:26;;;;;;;11.87;8.80;;;;;;;;;;5087385;28;20236;-64
2022/03/05 14:37:54;;;;;;;13.70;9.43;;;;;;;;;;5078884;27;20231;-63
2022/03/05 14:40:23;;;;;;;11.70;8.73;;;;;;;;;;5097907;27;20204;-63
2022/03/05 14:42:51;;;;;;;12.80;9.27;;;;;;;;;;5098745;28;20582;-64